Terminal Aerodrome Forecast
Issued by NWS Sioux Falls, SD

Home | Current Version | Previous Version | Text Only | Print | Product List | Glossary Off
Versions: 1 2 3 4 5 6 7 8 9 10 11 12 13 14 15 16 17 18 19 20 21 22 23 24 25

000
FTUS43 KFSD 310540
TAFSUX
TAF
KSUX 310540Z 3106/0106 07005KT P6SM FEW200
     FM311200 12006KT P6SM FEW030 SCT120
     FM311600 14011KT P6SM SCT035 OVC120=

USA.gov is the U.S. government's official web portal to all federal, state and local government web resources and services.